Time;durP1;ratioP1;P1;durP2;ratioP2;P2;SDS_P1;SDS_P2;PMS_P1;PMS_P2;Temp;Humidity;BMP_temperature;BMP_pressure;BME280_temperature;BME280_humidity;BME280_pressure;Samples;Min_cycle;Max_cycle;Signal;HPM_P1;HPM_P2
2022/02/19 00:00:06;;;;;;;2.73;0.70;;;11.60;53.90;;;;;;2472060;55;20961;-73
2022/02/19 00:02:32;;;;;;;3.42;0.80;;;11.60;53.90;;;;;;2289016;56;21029;-72
2022/02/19 00:05:01;;;;;;;4.07;0.90;;;11.60;53.70;;;;;;2289320;56;21460;-73
2022/02/19 00:07:27;;;;;;;3.83;0.90;;;11.60;53.70;;;;;;2291205;55;21689;-72
2022/02/19 00:09:57;;;;;;;4.65;0.90;;;11.60;53.70;;;;;;2286037;55;21012;-73
2022/02/19 00:12:23;;;;;;;4.35;0.68;;;11.60;53.40;;;;;;2333484;55;21035;-73
2022/02/19 00:14:52;;;;;;;5.07;1.10;;;11.60;53.20;;;;;;2289602;55;21020;-73
2022/02/19 00:17:24;;;;;;;4.07;1.00;;;11.60;53.20;;;;;;2339352;54;21088;-72
2022/02/19 00:19:52;;;;;;;4.90;0.90;;;11.60;53.10;;;;;;2289923;56;21026;-73
2022/02/19 00:22:28;;;;;;;6.25;1.25;;;11.60;53.30;;;;;;2290498;55;21035;-72
2022/02/19 00:24:55;;;;;;;6.68;1.20;;;11.60;53.00;;;;;;2374904;55;21411;-73
2022/02/19 00:27:21;;;;;;;4.12;0.98;;;11.60;53.00;;;;;;2289335;56;20996;-73
2022/02/19 00:29:47;;;;;;;3.85;0.77;;;11.60;53.00;;;;;;2289317;55;21298;-73
2022/02/19 00:32:13;;;;;;;5.07;1.02;;;11.60;52.90;;;;;;2288583;56;21322;-72
2022/02/19 00:34:40;;;;;;;6.28;1.10;;;11.50;52.70;;;;;;2289457;56;20944;-73
2022/02/19 00:37:06;;;;;;;5.75;1.35;;;11.50;52.80;;;;;;2292130;55;21029;-72
2022/02/19 00:39:33;;;;;;;3.78;0.90;;;11.60;52.50;;;;;;2285930;55;20937;-73
2022/02/19 00:42:02;;;;;;;5.85;1.20;;;11.50;52.20;;;;;;2288883;56;21056;-74
2022/02/19 00:44:30;;;;;;;4.87;0.85;;;11.50;52.40;;;;;;2288789;56;21033;-73
2022/02/19 00:46:57;;;;;;;3.78;1.00;;;11.50;52.40;;;;;;2289428;56;20932;-72
2022/02/19 00:49:23;;;;;;;6.87;1.30;;;11.50;52.40;;;;;;2289024;56;20940;-72
2022/02/19 00:51:50;;;;;;;3.60;1.10;;;11.50;52.10;;;;;;2287851;56;21016;-73
2022/02/19 00:54:17;;;;;;;5.78;1.10;;;11.40;51.90;;;;;;2299368;55;20963;-74
2022/02/19 00:56:44;;;;;;;3.47;0.98;;;11.40;51.90;;;;;;2288891;56;20960;-73
2022/02/19 00:59:11;;;;;;;4.75;1.20;;;11.40;51.80;;;;;;2289185;56;20924;-72
2022/02/19 01:01:37;;;;;;;7.32;1.62;;;11.40;51.70;;;;;;2290431;55;20941;-73
2022/02/19 01:04:04;;;;;;;6.15;0.90;;;11.40;51.80;;;;;;2280982;55;20981;-72
2022/02/19 01:06:32;;;;;;;3.70;1.00;;;11.40;51.60;;;;;;2338363;55;20964;-73
2022/02/19 01:08:59;;;;;;;5.15;1.20;;;11.40;51.40;;;;;;2419645;55;20942;-73
2022/02/19 01:11:25;;;;;;;5.10;1.00;;;11.40;51.40;;;;;;2308392;55;20940;-73
2022/02/19 01:13:55;;;;;;;4.10;1.00;;;11.40;51.50;;;;;;2288627;55;21005;-72
2022/02/19 01:16:21;;;;;;;3.95;0.93;;;11.40;51.40;;;;;;2289387;56;21620;-72
2022/02/19 01:18:49;;;;;;;6.05;1.30;;;11.40;51.20;;;;;;2289374;55;20964;-73
2022/02/19 01:21:17;;;;;;;4.80;1.10;;;11.30;51.20;;;;;;2288763;56;21052;-73
2022/02/19 01:23:47;;;;;;;5.90;1.23;;;11.40;51.00;;;;;;2400881;55;21095;-73
2022/02/19 01:26:13;;;;;;;6.28;1.35;;;11.30;51.10;;;;;;2516103;54;21557;-73
2022/02/19 01:28:40;;;;;;;5.65;1.42;;;11.40;51.20;;;;;;2468936;55;20964;-75
2022/02/19 01:31:07;;;;;;;5.00;1.20;;;11.30;51.00;;;;;;2289541;54;20986;-73
2022/02/19 01:33:34;;;;;;;6.65;1.45;;;11.30;50.90;;;;;;2287237;55;20988;-71
2022/02/19 01:36:00;;;;;;;3.70;1.17;;;11.30;51.30;;;;;;2286880;55;20916;-73
2022/02/19 01:38:28;;;;;;;5.82;1.08;;;11.30;50.90;;;;;;2289101;56;20972;-73
2022/02/19 01:40:57;;;;;;;8.13;1.33;;;11.30;50.80;;;;;;2289422;55;20998;-72
2022/02/19 01:43:24;;;;;;;6.62;1.12;;;11.30;50.90;;;;;;2287401;55;21015;-73
2022/02/19 01:45:50;;;;;;;8.80;1.25;;;11.30;50.60;;;;;;2367602;55;20960;-73
2022/02/19 01:48:19;;;;;;;7.35;1.48;;;11.30;50.70;;;;;;2333684;55;21020;-74
2022/02/19 01:50:45;;;;;;;6.37;1.30;;;11.30;50.40;;;;;;2288722;56;21471;-72
2022/02/19 01:53:11;;;;;;;4.93;1.20;;;11.30;50.60;;;;;;2285338;56;21511;-73
2022/02/19 01:55:38;;;;;;;7.45;1.27;;;11.30;50.50;;;;;;2376831;55;21000;-73
2022/02/19 01:58:06;;;;;;;7.07;1.50;;;11.30;50.40;;;;;;2289042;56;20944;-72
2022/02/19 02:00:32;;;;;;;4.35;1.12;;;11.20;50.20;;;;;;2272677;55;21509;-72
2022/02/19 02:03:00;;;;;;;7.62;1.40;;;11.20;50.20;;;;;;2397102;54;20964;-74
2022/02/19 02:05:27;;;;;;;6.25;1.37;;;11.20;50.30;;;;;;2288655;56;21737;-73
2022/02/19 02:07:53;;;;;;;4.40;0.85;;;11.20;50.20;;;;;;2298910;55;20997;-72
2022/02/19 02:10:20;;;;;;;7.25;1.30;;;11.20;50.30;;;;;;2289166;56;21091;-73
2022/02/19 02:12:46;;;;;;;5.95;1.02;;;11.20;50.30;;;;;;2286754;55;21058;-71
2022/02/19 02:16:13;;;;;;;6.62;1.42;;;11.20;50.30;;;;;;2438839;54;20960;-72
2022/02/19 02:18:42;;;;;;;9.07;1.23;;;11.20;49.70;;;;;;2288599;55;20984;-73
2022/02/19 02:21:09;;;;;;;6.70;1.15;;;11.20;50.30;;;;;;2374248;55;21864;-72
2022/02/19 02:23:35;;;;;;;6.72;1.27;;;11.10;50.30;;;;;;2286657;55;21024;-73
2022/02/19 02:26:04;;;;;;;7.15;1.10;;;11.10;50.30;;;;;;2312771;55;20961;-73
2022/02/19 02:28:30;;;;;;;3.33;0.80;;;11.10;50.30;;;;;;2288925;55;20982;-73
2022/02/19 02:30:58;;;;;;;5.37;1.33;;;11.10;50.30;;;;;;2300929;55;20989;-73
2022/02/19 02:33:24;;;;;;;3.50;0.88;;;11.10;50.30;;;;;;2314995;54;20981;-73
2022/02/19 02:35:51;;;;;;;4.03;1.08;;;11.10;50.30;;;;;;2347339;55;21443;-72
2022/02/19 02:38:18;;;;;;;4.40;0.60;;;11.10;50.30;;;;;;2288744;56;21430;-73
2022/02/19 02:40:44;;;;;;;4.32;0.98;;;11.10;50.30;;;;;;2483740;54;21128;-74
2022/02/19 02:43:10;;;;;;;6.20;1.00;;;11.00;50.30;;;;;;2286866;54;21785;-72
2022/02/19 02:45:38;;;;;;;4.35;1.00;;;11.00;50.20;;;;;;2332584;55;22397;-72
2022/02/19 02:48:17;;;;;;;4.72;0.95;;;11.00;50.20;;;;;;2316530;55;20971;-73
2022/02/19 02:50:44;;;;;;;6.55;1.15;;;11.00;50.30;;;;;;2373591;55;21052;-72
2022/02/19 02:53:41;;;;;;;5.30;1.02;;;11.00;50.30;;;;;;2289814;56;21044;-73
2022/02/19 02:56:08;;;;;;;7.28;1.15;;;10.90;50.20;;;;;;2341243;55;21054;-72
2022/02/19 02:58:34;;;;;;;4.45;1.10;;;11.00;50.30;;;;;;2287364;55;20921;-73
2022/02/19 03:01:00;;;;;;;6.82;1.20;;;10.90;50.30;;;;;;2288653;56;21081;-72
2022/02/19 03:03:26;;;;;;;3.62;0.95;;;10.90;50.20;;;;;;2288825;56;21434;-72
2022/02/19 03:05:53;;;;;;;4.45;1.05;;;10.90;50.10;;;;;;2321137;55;20940;-73
2022/02/19 03:08:20;;;;;;;3.65;0.82;;;10.80;50.10;;;;;;2288840;56;21034;-72
2022/02/19 03:10:47;;;;;;;9.05;1.80;;;10.80;50.10;;;;;;2394428;55;20972;-73
2022/02/19 03:13:13;;;;;;;6.68;1.25;;;10.80;50.00;;;;;;2351492;55;21515;-73
2022/02/19 03:15:40;;;;;;;5.90;1.10;;;10.80;50.10;;;;;;2294948;55;21012;-71
2022/02/19 03:18:06;;;;;;;7.62;1.10;;;10.80;50.10;;;;;;2339023;55;20940;-74
2022/02/19 03:20:39;;;;;;;5.00;1.27;;;10.80;50.00;;;;;;2392016;54;21752;-73
2022/02/19 03:23:06;;;;;;;6.55;0.95;;;10.70;50.00;;;;;;2346402;55;21031;-73
2022/02/19 03:25:33;;;;;;;4.47;1.15;;;10.70;49.90;;;;;;2281026;55;21092;-72
2022/02/19 03:27:59;;;;;;;5.57;1.30;;;10.70;49.90;;;;;;2338262;55;21045;-73
2022/02/19 03:30:25;;;;;;;4.25;0.90;;;10.70;50.00;;;;;;2272387;55;1377098;-73
2022/02/19 03:32:54;;;;;;;4.37;0.95;;;10.60;50.00;;;;;;2289140;54;21369;-73
2022/02/19 03:35:20;;;;;;;5.95;1.00;;;10.60;49.80;;;;;;2288410;55;21016;-73
2022/02/19 03:37:47;;;;;;;3.67;1.10;;;10.60;49.80;;;;;;2288650;56;20952;-74
2022/02/19 03:40:13;;;;;;;4.40;1.08;;;10.60;49.80;;;;;;2294183;55;20964;-72
2022/02/19 03:42:43;;;;;;;3.15;0.70;;;10.50;49.60;;;;;;2289670;55;20961;-73
2022/02/19 03:45:11;;;;;;;3.83;0.90;;;10.50;49.60;;;;;;2266624;56;20969;-74
2022/02/19 03:47:37;;;;;;;4.90;0.93;;;10.50;49.60;;;;;;2288669;56;21484;-72
2022/02/19 03:50:04;;;;;;;3.10;0.80;;;10.40;49.50;;;;;;2289528;56;21012;-73
2022/02/19 03:52:31;;;;;;;3.87;0.90;;;10.50;49.50;;;;;;2288530;56;21000;-73
2022/02/19 03:54:57;;;;;;;4.60;0.90;;;10.40;49.20;;;;;;2347629;54;21498;-72
2022/02/19 03:57:24;;;;;;;6.15;0.95;;;10.40;49.10;;;;;;2288801;56;20949;-73
2022/02/19 03:59:50;;;;;;;4.00;0.65;;;10.30;49.00;;;;;;2288415;56;20972;-72
2022/02/19 04:02:16;;;;;;;7.43;1.05;;;10.30;48.90;;;;;;2289501;55;21032;-72
2022/02/19 04:04:43;;;;;;;4.53;0.95;;;10.30;48.90;;;;;;2287797;56;21040;-71
2022/02/19 04:07:09;;;;;;;6.25;0.90;;;10.30;48.90;;;;;;2288766;56;20945;-73
2022/02/19 04:09:37;;;;;;;3.10;0.88;;;10.20;48.90;;;;;;2289095;56;21077;-73
2022/02/19 04:12:03;;;;;;;3.33;0.70;;;10.20;48.80;;;;;;2368928;55;20961;-72
2022/02/19 04:14:31;;;;;;;3.05;0.77;;;10.20;48.90;;;;;;2336793;55;21017;-72
2022/02/19 04:16:58;;;;;;;3.12;0.60;;;10.10;48.90;;;;;;2288262;55;21060;-71
2022/02/19 04:19:24;;;;;;;4.75;0.80;;;10.10;48.80;;;;;;2288922;56;21016;-74
2022/02/19 04:21:50;;;;;;;6.20;1.00;;;10.00;48.90;;;;;;2288598;55;21929;-74
2022/02/19 04:24:17;;;;;;;4.93;1.05;;;10.10;49.00;;;;;;2289177;56;20964;-74
2022/02/19 04:26:43;;;;;;;8.43;1.65;;;10.00;48.90;;;;;;2288688;56;21529;-73
2022/02/19 04:29:10;;;;;;;12.77;4.65;;;10.00;49.00;;;;;;2266860;56;21072;-72
2022/02/19 04:31:38;;;;;;;16.62;5.93;;;10.00;49.00;;;;;;2288719;56;20969;-72
2022/02/19 04:34:08;;;;;;;16.87;7.37;;;10.00;48.90;;;;;;2289265;56;21000;-73
2022/02/19 04:36:34;;;;;;;13.15;6.30;;;10.00;48.90;;;;;;2288797;56;21415;-72
2022/02/19 04:39:01;;;;;;;8.23;3.22;;;9.90;49.80;;;;;;2289140;56;20957;-73
2022/02/19 04:41:27;;;;;;;6.03;2.10;;;9.90;49.80;;;;;;2522353;54;21022;-73
2022/02/19 04:43:54;;;;;;;8.68;2.00;;;9.90;49.70;;;;;;2469750;54;21043;-71
2022/02/19 04:46:20;;;;;;;5.57;1.37;;;9.80;49.60;;;;;;2276175;54;20957;-71
2022/02/19 04:48:47;;;;;;;8.02;1.30;;;9.80;49.80;;;;;;2277057;55;20953;-73
2022/02/19 04:51:13;;;;;;;3.75;1.17;;;9.80;49.80;;;;;;2290269;55;20933;-73
2022/02/19 04:53:40;;;;;;;8.32;1.73;;;9.80;49.80;;;;;;2286684;55;21382;-74
2022/02/19 04:56:06;;;;;;;4.78;1.00;;;9.70;49.80;;;;;;2288166;55;21083;-73
2022/02/19 04:58:32;;;;;;;3.33;1.05;;;9.70;49.60;;;;;;2289756;56;20989;-71
2022/02/19 05:00:59;;;;;;;4.03;1.08;;;9.70;49.70;;;;;;2368504;55;20968;-72
2022/02/19 05:03:25;;;;;;;7.32;1.50;;;9.60;49.80;;;;;;2460161;55;21069;-73
2022/02/19 05:05:51;;;;;;;5.65;1.48;;;9.60;49.80;;;;;;2289028;56;20965;-74
2022/02/19 05:08:18;;;;;;;3.95;1.10;;;9.60;49.90;;;;;;2288385;55;20949;-73
2022/02/19 05:10:47;;;;;;;5.22;1.30;;;9.60;50.00;;;;;;2289221;56;20976;-74
2022/02/19 05:13:14;;;;;;;6.62;1.40;;;9.50;49.90;;;;;;2428895;55;20921;-73
2022/02/19 05:15:41;;;;;;;7.43;1.65;;;9.50;50.00;;;;;;2289217;56;20945;-73
2022/02/19 05:18:08;;;;;;;5.35;1.70;;;9.50;50.70;;;;;;2288479;56;20965;-73
2022/02/19 05:20:47;;;;;;;7.47;1.50;;;9.40;50.10;;;;;;2290516;56;20964;-71
2022/02/19 05:23:14;;;;;;;4.68;1.23;;;9.40;49.90;;;;;;2285709;55;21481;-73
2022/02/19 05:25:41;;;;;;;4.82;1.27;;;9.40;50.20;;;;;;2289032;55;21004;-73
2022/02/19 05:28:10;;;;;;;5.28;1.37;;;9.40;50.30;;;;;;2289037;56;21048;-72
2022/02/19 05:30:39;;;;;;;2.47;0.80;;;9.30;50.20;;;;;;2289199;56;21794;-73
2022/02/19 05:33:07;;;;;;;2.50;0.68;;;9.30;50.30;;;;;;2288879;56;20881;-73
2022/02/19 05:35:33;;;;;;;5.10;1.10;;;9.30;50.30;;;;;;2289481;55;22016;-72
2022/02/19 05:38:00;;;;;;;3.85;0.88;;;9.20;50.10;;;;;;2479863;55;21453;-72
2022/02/19 05:40:26;;;;;;;6.95;1.12;;;9.20;50.30;;;;;;2280748;55;21005;-71
2022/02/19 05:43:02;;;;;;;4.25;1.05;;;9.20;50.30;;;;;;2284833;55;20936;-72
2022/02/19 05:45:28;;;;;;;6.78;1.37;;;9.20;50.30;;;;;;2288346;56;20986;-72
2022/02/19 05:47:58;;;;;;;4.93;0.75;;;9.20;50.60;;;;;;2294467;55;21029;-72
2022/02/19 05:50:25;;;;;;;7.28;1.02;;;9.10;50.50;;;;;;2289311;56;20956;-72
2022/02/19 05:52:52;;;;;;;10.45;2.75;;;9.10;50.60;;;;;;2288451;55;21842;-72
2022/02/19 05:55:18;;;;;;;17.08;5.85;;;9.10;50.70;;;;;;2292009;56;21073;-72
2022/02/19 05:57:47;;;;;;;10.75;3.83;;;9.10;50.90;;;;;;2287494;55;21065;-72
2022/02/19 06:00:15;;;;;;;8.85;2.58;;;9.10;50.80;;;;;;2277771;55;21564;-72
2022/02/19 06:02:42;;;;;;;6.70;2.35;;;9.10;50.90;;;;;;2287920;55;21044;-73
2022/02/19 06:05:08;;;;;;;6.93;2.00;;;9.00;50.90;;;;;;2377331;54;21022;-74
2022/02/19 06:07:35;;;;;;;8.38;1.85;;;9.00;50.90;;;;;;2288055;55;20933;-73
2022/02/19 06:10:02;;;;;;;8.25;1.58;;;9.00;50.90;;;;;;2289349;56;20961;-71
2022/02/19 06:12:28;;;;;;;5.07;1.48;;;9.00;51.60;;;;;;2288760;56;20996;-72
2022/02/19 06:14:54;;;;;;;9.65;1.48;;;9.00;51.00;;;;;;2289159;56;20929;-73
2022/02/19 06:17:21;;;;;;;7.15;1.45;;;8.90;51.00;;;;;;2288596;56;20953;-72
2022/02/19 06:19:47;;;;;;;8.65;1.60;;;8.90;51.00;;;;;;2288857;56;21881;-72
2022/02/19 06:22:14;;;;;;;3.03;1.00;;;8.90;51.00;;;;;;2289076;56;21481;-71
2022/02/19 06:24:40;;;;;;;7.82;1.40;;;8.90;51.10;;;;;;2287726;55;20981;-72
2022/02/19 06:27:07;;;;;;;4.87;1.15;;;8.90;51.10;;;;;;2304608;55;21338;-72
2022/02/19 06:29:33;;;;;;;6.07;1.55;;;8.80;51.10;;;;;;2315134;55;20983;-71
2022/02/19 06:32:00;;;;;;;3.40;1.10;;;8.80;51.20;;;;;;2310949;55;20949;-74
2022/02/19 06:34:26;;;;;;;4.10;0.90;;;8.80;51.30;;;;;;2292732;55;20956;-73
2022/02/19 06:36:52;;;;;;;4.47;1.00;;;8.80;51.30;;;;;;2283683;55;20945;-73
2022/02/19 06:39:18;;;;;;;4.72;1.10;;;8.80;51.30;;;;;;2288845;56;20951;-72
2022/02/19 06:41:45;;;;;;;5.78;1.02;;;8.70;51.30;;;;;;2390444;55;20940;-72
2022/02/19 06:44:14;;;;;;;4.18;1.05;;;8.70;51.30;;;;;;2289006;56;20960;-72
2022/02/19 06:46:41;;;;;;;6.15;1.42;;;8.70;51.40;;;;;;2332025;55;20952;-71
2022/02/19 06:49:07;;;;;;;4.78;0.85;;;8.70;51.40;;;;;;2278978;55;21065;-73
2022/02/19 06:51:34;;;;;;;5.15;0.77;;;8.60;51.30;;;;;;2285793;55;20969;-72
2022/02/19 06:54:00;;;;;;;8.27;1.30;;;8.60;51.40;;;;;;2288742;56;20969;-71
2022/02/19 06:56:27;;;;;;;2.45;0.82;;;8.60;51.40;;;;;;2288811;56;20951;-70
2022/02/19 06:58:56;;;;;;;5.15;1.00;;;8.60;51.50;;;;;;2286876;55;20964;-72
2022/02/19 07:01:23;;;;;;;3.85;1.23;;;8.60;51.50;;;;;;2290992;56;20997;-73
2022/02/19 07:03:54;;;;;;;4.20;1.23;;;8.60;51.60;;;;;;2481611;54;21012;-71
2022/02/19 07:06:21;;;;;;;4.00;1.00;;;8.50;51.50;;;;;;2266389;56;21886;-72
2022/02/19 07:08:49;;;;;;;6.22;1.60;;;8.50;51.60;;;;;;2288116;55;21568;-73
2022/02/19 07:11:15;;;;;;;3.40;1.00;;;8.50;51.70;;;;;;2323234;55;20956;-72
2022/02/19 07:13:45;;;;;;;5.22;1.20;;;8.50;51.80;;;;;;2291654;55;20932;-74
2022/02/19 07:16:11;;;;;;;5.35;1.00;;;8.60;51.80;;;;;;2284581;55;20941;-72
2022/02/19 07:18:38;;;;;;;4.65;1.05;;;8.50;51.80;;;;;;2289843;55;20961;-73
2022/02/19 07:21:04;;;;;;;4.95;1.00;;;8.50;51.80;;;;;;2289187;54;20970;-73
2022/02/19 07:23:31;;;;;;;4.47;1.10;;;8.60;52.00;;;;;;2310231;55;20945;-71
2022/02/19 07:25:59;;;;;;;3.25;0.90;;;8.60;51.90;;;;;;2523508;55;20945;-73
2022/02/19 07:28:25;;;;;;;5.20;1.20;;;8.60;51.90;;;;;;2288175;56;20944;-72
2022/02/19 07:30:52;;;;;;;5.07;0.93;;;8.60;52.00;;;;;;2291048;55;20981;-72
2022/02/19 07:33:18;;;;;;;3.45;1.02;;;8.60;52.00;;;;;;2284809;55;21021;-71
2022/02/19 07:35:45;;;;;;;6.78;1.00;;;8.60;52.10;;;;;;2289468;55;20957;-72
2022/02/19 07:38:12;;;;;;;7.05;0.90;;;8.60;52.00;;;;;;2288433;56;21571;-72
2022/02/19 07:40:39;;;;;;;2.92;0.85;;;8.60;52.10;;;;;;2288450;56;21029;-72
2022/02/19 07:43:07;;;;;;;5.20;1.23;;;8.70;52.20;;;;;;2289528;55;20996;-73
2022/02/19 07:45:34;;;;;;;5.90;1.30;;;8.70;52.20;;;;;;2286987;54;20993;-72
2022/02/19 07:48:01;;;;;;;4.00;1.30;;;8.70;52.30;;;;;;2288665;56;20952;-73
2022/02/19 07:58:41;;;;;;;6.55;1.10;;;8.80;52.20;;;;;;2288908;56;20952;-72
2022/02/19 08:01:08;;;;;;;4.05;0.95;;;8.80;52.20;;;;;;2288834;55;21017;-71
2022/02/19 08:03:34;;;;;;;6.70;1.35;;;8.80;52.20;;;;;;2370570;55;21448;-72
2022/02/19 08:06:01;;;;;;;8.85;1.62;;;8.90;52.30;;;;;;2289377;56;21071;-72
2022/02/19 08:08:28;;;;;;;3.95;1.30;;;8.90;52.20;;;;;;2288937;56;20953;-71
2022/02/19 08:10:54;;;;;;;4.37;1.10;;;8.90;52.20;;;;;;2287188;55;20967;-73
2022/02/19 08:13:21;;;;;;;3.78;1.23;;;9.00;52.20;;;;;;2291075;55;21838;-74
2022/02/19 08:15:51;;;;;;;6.72;1.55;;;9.00;52.20;;;;;;2288822;55;20944;-71
2022/02/19 08:18:17;;;;;;;5.03;1.27;;;9.10;52.30;;;;;;2291112;55;21053;-72
2022/02/19 08:20:45;;;;;;;8.18;1.70;;;9.20;52.30;;;;;;2286482;55;20956;-72
2022/02/19 08:23:12;;;;;;;4.90;1.00;;;9.20;52.30;;;;;;2289102;56;21028;-71
2022/02/19 08:25:40;;;;;;;4.82;1.30;;;9.20;52.20;;;;;;2288801;56;20949;-73
2022/02/19 08:28:06;;;;;;;5.90;1.23;;;9.30;52.20;;;;;;2289301;56;21020;-73
2022/02/19 08:30:34;;;;;;;5.93;1.05;;;9.30;52.30;;;;;;2289026;56;21049;-72
2022/02/19 08:33:00;;;;;;;6.57;1.83;;;9.40;52.30;;;;;;2266399;56;21743;-72
2022/02/19 08:35:27;;;;;;;5.47;1.85;;;9.40;52.30;;;;;;2288099;56;20933;-74
2022/02/19 08:37:56;;;;;;;11.82;4.32;;;9.50;52.30;;;;;;2296243;55;21049;-72
2022/02/19 08:40:22;;;;;;;13.20;3.72;;;9.60;52.40;;;;;;2412058;54;21037;-74
2022/02/19 08:42:49;;;;;;;9.27;3.70;;;9.60;52.30;;;;;;2288301;56;20953;-74
2022/02/19 08:45:16;;;;;;;10.60;3.70;;;9.60;52.20;;;;;;2288543;56;21452;-72
2022/02/19 08:47:43;;;;;;;10.95;3.53;;;9.70;52.30;;;;;;2310636;55;21038;-72
2022/02/19 08:50:12;;;;;;;9.02;2.75;;;9.80;52.40;;;;;;2288787;56;21058;-73
2022/02/19 08:52:40;;;;;;;7.15;2.22;;;9.80;52.30;;;;;;2344043;55;20949;-74
2022/02/19 08:55:07;;;;;;;10.30;3.15;;;9.90;52.30;;;;;;2319516;55;21957;-74
2022/02/19 08:57:35;;;;;;;12.85;3.87;;;9.90;52.20;;;;;;2266829;55;21744;-71
2022/02/19 09:00:01;;;;;;;10.25;3.95;;;10.00;51.30;;;;;;2290245;55;20960;-73
2022/02/19 09:02:28;;;;;;;17.30;5.82;;;10.10;51.30;;;;;;2319116;55;21570;-74
2022/02/19 09:04:54;;;;;;;10.15;3.53;;;10.10;51.30;;;;;;2312562;55;21004;-74
2022/02/19 09:07:22;;;;;;;13.00;4.30;;;10.20;51.70;;;;;;2504555;55;21027;-75
2022/02/19 09:09:49;;;;;;;8.77;3.35;;;10.30;52.30;;;;;;2284610;55;21449;-73
2022/02/19 09:12:16;;;;;;;16.60;4.30;;;10.50;52.60;;;;;;2426183;54;21052;-72
2022/02/19 09:14:42;;;;;;;12.60;4.37;;;10.60;52.50;;;;;;2295867;55;21436;-73
2022/02/19 09:17:09;;;;;;;9.40;3.67;;;10.80;52.60;;;;;;2287631;55;21099;-74
2022/02/19 09:19:35;;;;;;;15.30;6.05;;;11.00;52.80;;;;;;2288126;55;21390;-73
2022/02/19 09:22:02;;;;;;;28.20;11.85;;;11.20;53.20;;;;;;2406526;55;21056;-74
2022/02/19 09:24:29;;;;;;;22.37;8.25;;;11.50;53.60;;;;;;2288834;56;21414;-73
2022/02/19 09:26:56;;;;;;;23.42;9.15;;;11.70;53.40;;;;;;2514476;55;20950;-74
2022/02/19 09:29:25;;;;;;;18.02;7.78;;;12.00;52.80;;;;;;2328470;54;21040;-75
2022/02/19 09:31:53;;;;;;;25.83;9.57;;;12.10;52.20;;;;;;2313037;55;21004;-74
2022/02/19 09:34:23;;;;;;;28.00;9.55;;;12.20;52.00;;;;;;2288505;56;21065;-73
2022/02/19 09:36:52;;;;;;;34.13;10.15;;;12.30;51.60;;;;;;2288454;56;21012;-73
2022/02/19 09:39:21;;;;;;;30.85;10.32;;;12.30;51.00;;;;;;2288636;56;20948;-74
2022/02/19 09:41:48;;;;;;;25.60;8.98;;;12.20;50.60;;;;;;2295186;55;21099;-75
2022/02/19 09:44:15;;;;;;;36.88;11.23;;;12.30;50.30;;;;;;2289996;56;20948;-73
2022/02/19 09:46:41;;;;;;;23.30;7.35;;;12.20;50.30;;;;;;2403611;55;21078;-73
2022/02/19 09:49:08;;;;;;;12.25;4.28;;;12.20;50.40;;;;;;2284396;55;21020;-74
2022/02/19 09:51:36;;;;;;;10.63;3.25;;;12.30;50.60;;;;;;2289437;56;21012;-74
2022/02/19 09:54:03;;;;;;;8.23;2.78;;;12.30;50.40;;;;;;2288023;55;21014;-73
2022/02/19 09:56:30;;;;;;;5.75;1.80;;;12.30;50.70;;;;;;2295294;55;20949;-74
2022/02/19 09:58:59;;;;;;;3.83;1.23;;;12.30;51.20;;;;;;2287842;55;20960;-73
2022/02/19 10:01:26;;;;;;;5.03;1.10;;;12.50;51.50;;;;;;2319958;55;21864;-74
2022/02/19 10:03:57;;;;;;;6.12;1.08;;;12.70;52.00;;;;;;2288946;56;21514;-73
2022/02/19 10:06:41;;;;;;;6.53;1.25;;;12.90;52.30;;;;;;2293244;55;20957;-74
2022/02/19 10:09:12;;;;;;;3.25;0.90;;;13.20;52.20;;;;;;2288310;56;21974;-72
2022/02/19 10:11:43;;;;;;;4.43;1.15;;;13.40;53.50;;;;;;2338676;55;20971;-75
2022/02/19 10:16:01;;;;;;;3.53;1.10;;;13.70;53.40;;;;;;2288689;56;21083;-74
2022/02/19 10:19:04;;;;;;;2.92;1.02;;;14.30;53.00;;;;;;2287443;56;21363;-73
2022/02/19 10:21:30;;;;;;;;;;;14.60;54.20;;;;;;2299641;55;20988;-74
2022/02/19 10:23:57;;;;;;;4.47;1.10;;;14.90;53.30;;;;;;2523347;54;20293;-74
2022/02/19 10:26:31;;;;;;;3.53;1.12;;;15.20;54.40;;;;;;2288456;56;21048;-74
2022/02/19 10:29:07;;;;;;;3.50;1.02;;;15.50;53.60;;;;;;2511073;54;21865;-73
2022/02/19 10:31:34;;;;;;;5.43;1.17;;;15.80;53.20;;;;;;2286362;55;21750;-74
2022/02/19 10:34:07;;;;;;;4.15;0.98;;;16.00;52.60;;;;;;2289103;55;21010;-73
2022/02/19 10:36:50;;;;;;;5.15;1.33;;;16.20;51.70;;;;;;2288204;55;20964;-73
2022/02/19 10:39:32;;;;;;;4.05;1.12;;;16.30;50.90;;;;;;2330131;54;20975;-72
2022/02/19 10:42:05;;;;;;;3.65;1.00;;;16.40;50.10;;;;;;2289285;56;20948;-72
2022/02/19 10:44:33;;;;;;;3.90;0.80;;;16.50;49.70;;;;;;2287254;55;20965;-73
2022/02/19 10:47:21;;;;;;;6.28;1.02;;;16.50;49.60;;;;;;2339906;54;20985;-73
2022/02/19 10:50:18;;;;;;;5.78;1.10;;;16.50;47.90;;;;;;2523114;55;20936;-73
2022/02/19 10:52:56;;;;;;;5.70;1.00;;;16.40;48.00;;;;;;2287887;56;21021;-79
2022/02/19 10:55:29;;;;;;;4.15;1.02;;;16.40;48.60;;;;;;2309648;55;20964;-75
2022/02/19 10:58:02;;;;;;;3.67;0.73;;;16.30;48.00;;;;;;2287180;55;20980;-74
2022/02/19 11:00:33;;;;;;;4.70;0.82;;;16.30;48.40;;;;;;2361724;55;21012;-74
2022/02/19 11:03:03;;;;;;;5.37;0.80;;;16.40;48.50;;;;;;2291381;56;21008;-76
2022/02/19 11:05:31;;;;;;;5.82;0.77;;;16.40;48.50;;;;;;2349830;54;20952;-72
2022/02/19 11:07:58;;;;;;;3.40;0.70;;;16.50;48.80;;;;;;2288594;56;20925;-73
2022/02/19 11:10:25;;;;;;;3.17;0.85;;;16.40;48.50;;;;;;2330961;54;21089;-74
2022/02/19 11:12:51;;;;;;;5.85;1.00;;;16.50;48.80;;;;;;2477855;54;20999;-73
2022/02/19 11:15:23;;;;;;;5.00;1.00;;;16.60;49.00;;;;;;2334030;55;21398;-76
2022/02/19 11:17:50;;;;;;;2.50;0.62;;;16.70;49.00;;;;;;2287494;56;21528;-73
2022/02/19 11:20:17;;;;;;;2.47;0.80;;;16.90;49.40;;;;;;2288382;55;20985;-75
2022/02/19 11:22:43;;;;;;;5.78;1.30;;;17.00;49.20;;;;;;2288501;56;20990;-73
2022/02/19 11:25:13;;;;;;;3.45;0.90;;;17.20;47.70;;;;;;2298582;55;21020;-73
2022/02/19 11:27:48;;;;;;;4.25;1.20;;;17.30;48.10;;;;;;2288821;55;20952;-74
2022/02/19 11:30:17;;;;;;;3.67;1.17;;;17.40;48.40;;;;;;2287393;55;20977;-73
2022/02/19 11:32:43;;;;;;;3.60;0.90;;;17.60;48.90;;;;;;2287462;55;20960;-75
2022/02/19 11:35:10;;;;;;;5.00;0.90;;;17.70;48.10;;;;;;2465560;54;20980;-74
2022/02/19 11:37:41;;;;;;;2.87;0.70;;;17.70;47.40;;;;;;2287637;55;20977;-74
2022/02/19 11:40:12;;;;;;;3.12;0.75;;;17.70;46.60;;;;;;2297686;55;20964;-75
2022/02/19 11:42:48;;;;;;;5.05;0.82;;;17.70;46.00;;;;;;2278935;55;21805;-75
2022/02/19 11:45:39;;;;;;;5.50;0.80;;;17.60;44.70;;;;;;2286633;55;20964;-75
2022/02/19 11:48:28;;;;;;;2.20;0.70;;;17.30;43.50;;;;;;2315299;55;21456;-75
2022/02/19 11:54:27;;;;;;;2.97;0.73;;;17.10;43.60;;;;;;2491865;55;20985;-74
2022/02/19 11:56:53;;;;;;;6.03;0.80;;;16.70;45.30;;;;;;2287370;56;20929;-74
2022/02/19 11:59:21;;;;;;;3.37;1.00;;;16.70;46.20;;;;;;2288356;54;20965;-75
2022/02/19 12:02:24;;;;;;;5.72;1.20;;;16.60;46.30;;;;;;2287748;55;20988;-75
2022/02/19 12:05:15;;;;;;;4.07;0.90;;;16.60;45.00;;;;;;2363820;55;21008;-73
2022/02/19 12:07:57;;;;;;;2.90;1.00;;;16.60;44.70;;;;;;2270130;55;20992;-74
2022/02/19 12:10:24;;;;;;;;;;;16.40;44.30;;;;;;2292801;54;20961;-73
2022/02/19 12:13:16;;;;;;;4.95;0.93;;;16.50;45.30;;;;;;2288887;55;20081;-74
2022/02/19 12:15:43;;;;;;;4.90;0.70;;;16.50;44.60;;;;;;2288158;55;20992;-74
2022/02/19 12:18:11;;;;;;;2.65;0.80;;;16.50;45.60;;;;;;2321114;55;20968;-74
2022/02/19 12:20:40;;;;;;;3.25;0.70;;;16.50;45.40;;;;;;2288064;56;20983;-74
2022/02/19 12:23:07;;;;;;;4.20;0.88;;;16.50;45.20;;;;;;2288334;56;21020;-73
2022/02/19 12:25:59;;;;;;;3.78;0.88;;;16.50;44.90;;;;;;2288015;56;20980;-73
2022/02/19 12:28:25;;;;;;;6.22;1.23;;;16.50;44.10;;;;;;2287611;56;21024;-74
2022/02/19 12:31:31;;;;;;;2.67;0.60;;;16.60;46.10;;;;;;2288204;56;21015;-74
2022/02/19 12:34:07;;;;;;;3.83;0.82;;;16.70;44.60;;;;;;2293751;55;20993;-74
2022/02/19 12:36:34;;;;;;;3.75;0.88;;;16.80;46.00;;;;;;2288897;56;21799;-73
2022/02/19 12:39:00;;;;;;;4.07;0.98;;;17.00;45.70;;;;;;2288231;56;20952;-74
2022/02/19 12:41:27;;;;;;;2.78;0.80;;;17.20;45.60;;;;;;2298686;55;20948;-72
2022/02/19 12:44:05;;;;;;;4.37;0.93;;;17.30;45.20;;;;;;2288030;56;20992;-73
2022/02/19 12:46:32;;;;;;;3.08;0.77;;;17.40;43.90;;;;;;2288378;56;20933;-72
2022/02/19 12:48:59;;;;;;;4.32;1.23;;;17.40;44.10;;;;;;2288172;55;21025;-74
2022/02/19 12:51:26;;;;;;;3.78;0.90;;;17.40;44.60;;;;;;2292403;55;20972;-74
2022/02/19 12:53:52;;;;;;;3.95;0.80;;;17.40;43.90;;;;;;2277305;54;21025;-73
2022/02/19 12:56:18;;;;;;;2.58;0.60;;;17.40;43.70;;;;;;2285776;55;21000;-74
2022/02/19 12:58:48;;;;;;;5.15;1.23;;;17.50;43.20;;;;;;2290842;56;21064;-74
2022/02/19 13:01:15;;;;;;;2.62;0.75;;;17.50;42.70;;;;;;2281473;55;21581;-72
2022/02/19 13:03:44;;;;;;;4.18;0.80;;;17.50;42.50;;;;;;2272874;55;21041;-72
2022/02/19 13:06:10;;;;;;;2.87;0.73;;;17.50;41.70;;;;;;2267016;56;20981;-72
2022/02/19 13:08:37;;;;;;;7.00;2.50;;;17.40;42.30;;;;;;2288899;56;20964;-77
2022/02/19 13:11:04;;;;;;;4.78;1.40;;;17.40;42.20;;;;;;2287996;55;20945;-72